sensor_id;sensor_type;location;lat;lon;timestamp;P1;durP1;ratioP1;P2;durP2;ratioP2
25169;SDS011;13129;48.012;10.352;2023-02-01T04:31:48;10.70;;;7.60;;
25169;SDS011;13129;48.012;10.352;2023-02-01T04:34:14;10.38;;;8.10;;
25169;SDS011;13129;48.012;10.352;2023-02-01T04:36:40;11.13;;;8.82;;
25169;SDS011;13129;48.012;10.352;2023-02-01T04:39:05;10.52;;;7.40;;
25169;SDS011;13129;48.012;10.352;2023-02-01T04:41:31;9.50;;;7.30;;
25169;SDS011;13129;48.012;10.352;2023-02-01T04:43:57;13.60;;;7.72;;
25169;SDS011;13129;48.012;10.352;2023-02-01T04:46:22;9.40;;;7.43;;
25169;SDS011;13129;48.012;10.352;2023-02-01T04:48:48;11.98;;;7.50;;
25169;SDS011;13129;48.012;10.352;2023-02-01T04:51:14;10.27;;;7.43;;
25169;SDS011;13129;48.012;10.352;2023-02-01T04:53:40;10.40;;;8.23;;
25169;SDS011;13129;48.012;10.352;2023-02-01T04:56:06;10.93;;;8.73;;
25169;SDS011;13129;48.012;10.352;2023-02-01T04:58:32;9.52;;;8.32;;
25169;SDS011;13129;48.012;10.352;2023-02-01T05:00:57;13.32;;;8.90;;
25169;SDS011;13129;48.012;10.352;2023-02-01T05:03:23;11.60;;;9.30;;
25169;SDS011;13129;48.012;10.352;2023-02-01T05:05:49;12.45;;;8.57;;
25169;SDS011;13129;48.012;10.352;2023-02-01T05:08:14;16.50;;;12.90;;
25169;SDS011;13129;48.012;10.352;2023-02-01T05:10:40;19.35;;;15.10;;
25169;SDS011;13129;48.012;10.352;2023-02-01T05:13:07;12.10;;;9.43;;
25169;SDS011;13129;48.012;10.352;2023-02-01T05:15:52;12.90;;;9.35;;
25169;SDS011;13129;48.012;10.352;2023-02-01T05:18:17;19.10;;;13.80;;
25169;SDS011;13129;48.012;10.352;2023-02-01T05:20:43;13.45;;;9.55;;
25169;SDS011;13129;48.012;10.352;2023-02-01T05:23:09;26.15;;;16.10;;
25169;SDS011;13129;48.012;10.352;2023-02-01T05:25:34;12.48;;;8.52;;
25169;SDS011;13129;48.012;10.352;2023-02-01T05:28:00;12.88;;;9.00;;
25169;SDS011;13129;48.012;10.352;2023-02-01T05:30:26;16.85;;;12.13;;
25169;SDS011;13129;48.012;10.352;2023-02-01T05:32:52;15.13;;;11.52;;
25169;SDS011;13129;48.012;10.352;2023-02-01T05:35:17;24.10;;;16.00;;
25169;SDS011;13129;48.012;10.352;2023-02-01T05:37:44;12.77;;;9.32;;
25169;SDS011;13129;48.012;10.352;2023-02-01T05:40:09;12.90;;;10.75;;
25169;SDS011;13129;48.012;10.352;2023-02-01T05:42:36;24.58;;;19.83;;
25169;SDS011;13129;48.012;10.352;2023-02-01T05:45:01;12.05;;;10.70;;
25169;SDS011;13129;48.012;10.352;2023-02-01T05:47:27;13.25;;;9.10;;
25169;SDS011;13129;48.012;10.352;2023-02-01T05:49:53;11.90;;;8.90;;
25169;SDS011;13129;48.012;10.352;2023-02-01T05:52:19;11.10;;;8.18;;
25169;SDS011;13129;48.012;10.352;2023-02-01T05:54:45;11.02;;;8.63;;
25169;SDS011;13129;48.012;10.352;2023-02-01T05:57:12;11.80;;;9.00;;
25169;SDS011;13129;48.012;10.352;2023-02-01T05:59:38;10.60;;;8.27;;
25169;SDS011;13129;48.012;10.352;2023-02-01T06:02:09;12.50;;;8.35;;
25169;SDS011;13129;48.012;10.352;2023-02-01T06:04:35;10.38;;;9.25;;
25169;SDS011;13129;48.012;10.352;2023-02-01T06:07:01;12.93;;;9.85;;
25169;SDS011;13129;48.012;10.352;2023-02-01T06:09:27;8.65;;;7.53;;
25169;SDS011;13129;48.012;10.352;2023-02-01T06:11:53;12.15;;;8.38;;
25169;SDS011;13129;48.012;10.352;2023-02-01T06:14:19;12.85;;;10.77;;
25169;SDS011;13129;48.012;10.352;2023-02-01T06:16:45;14.40;;;9.48;;
25169;SDS011;13129;48.012;10.352;2023-02-01T06:19:11;10.02;;;8.77;;
25169;SDS011;13129;48.012;10.352;2023-02-01T06:21:38;10.98;;;9.82;;
25169;SDS011;13129;48.012;10.352;2023-02-01T06:24:03;11.35;;;8.85;;
25169;SDS011;13129;48.012;10.352;2023-02-01T06:26:29;10.60;;;8.85;;
25169;SDS011;13129;48.012;10.352;2023-02-01T06:28:55;12.07;;;8.07;;
25169;SDS011;13129;48.012;10.352;2023-02-01T06:31:21;11.02;;;8.80;;
25169;SDS011;13129;48.012;10.352;2023-02-01T06:33:47;10.20;;;8.27;;
25169;SDS011;13129;48.012;10.352;2023-02-01T06:36:13;8.75;;;7.68;;
25169;SDS011;13129;48.012;10.352;2023-02-01T06:38:41;13.38;;;9.77;;
25169;SDS011;13129;48.012;10.352;2023-02-01T06:41:06;11.07;;;8.65;;
25169;SDS011;13129;48.012;10.352;2023-02-01T06:43:33;9.93;;;8.25;;
25169;SDS011;13129;48.012;10.352;2023-02-01T06:46:03;10.50;;;8.55;;
25169;SDS011;13129;48.012;10.352;2023-02-01T06:48:31;10.85;;;7.97;;
25169;SDS011;13129;48.012;10.352;2023-02-01T06:50:59;12.82;;;8.82;;
25169;SDS011;13129;48.012;10.352;2023-02-01T06:53:24;11.13;;;8.30;;
25169;SDS011;13129;48.012;10.352;2023-02-01T06:56:00;9.93;;;8.93;;
25169;SDS011;13129;48.012;10.352;2023-02-01T06:58:28;10.55;;;7.78;;
25169;SDS011;13129;48.012;10.352;2023-02-01T07:00:54;9.70;;;8.68;;
25169;SDS011;13129;48.012;10.352;2023-02-01T07:03:20;8.10;;;7.30;;
25169;SDS011;13129;48.012;10.352;2023-02-01T07:05:46;11.05;;;8.10;;
25169;SDS011;13129;48.012;10.352;2023-02-01T07:08:11;9.20;;;7.57;;
25169;SDS011;13129;48.012;10.352;2023-02-01T07:10:37;9.85;;;7.53;;
25169;SDS011;13129;48.012;10.352;2023-02-01T07:13:03;10.20;;;8.50;;
25169;SDS011;13129;48.012;10.352;2023-02-01T07:15:29;10.38;;;8.27;;
25169;SDS011;13129;48.012;10.352;2023-02-01T07:17:55;8.55;;;7.32;;
25169;SDS011;13129;48.012;10.352;2023-02-01T07:20:21;9.32;;;6.95;;
25169;SDS011;13129;48.012;10.352;2023-02-01T07:22:47;9.20;;;7.35;;
25169;SDS011;13129;48.012;10.352;2023-02-01T07:25:13;9.88;;;7.35;;
25169;SDS011;13129;48.012;10.352;2023-02-01T07:27:39;8.18;;;7.15;;
25169;SDS011;13129;48.012;10.352;2023-02-01T07:30:05;10.98;;;8.40;;
25169;SDS011;13129;48.012;10.352;2023-02-01T07:32:32;12.10;;;8.05;;
25169;SDS011;13129;48.012;10.352;2023-02-01T07:34:57;8.52;;;7.30;;
25169;SDS011;13129;48.012;10.352;2023-02-01T07:37:23;11.20;;;7.30;;
25169;SDS011;13129;48.012;10.352;2023-02-01T07:39:50;10.80;;;7.85;;
25169;SDS011;13129;48.012;10.352;2023-02-01T07:42:16;9.35;;;7.53;;
25169;SDS011;13129;48.012;10.352;2023-02-01T07:44:42;9.23;;;7.05;;
25169;SDS011;13129;48.012;10.352;2023-02-01T07:47:08;8.57;;;6.97;;
25169;SDS011;13129;48.012;10.352;2023-02-01T07:49:34;10.18;;;7.28;;
25169;SDS011;13129;48.012;10.352;2023-02-01T07:51:59;10.63;;;7.15;;
25169;SDS011;13129;48.012;10.352;2023-02-01T07:54:25;8.20;;;6.97;;
25169;SDS011;13129;48.012;10.352;2023-02-01T07:56:51;7.75;;;6.55;;
25169;SDS011;13129;48.012;10.352;2023-02-01T07:59:16;9.40;;;6.43;;
25169;SDS011;13129;48.012;10.352;2023-02-01T08:01:42;9.13;;;6.40;;
25169;SDS011;13129;48.012;10.352;2023-02-01T08:04:09;8.52;;;6.28;;
25169;SDS011;13129;48.012;10.352;2023-02-01T08:06:37;10.68;;;7.43;;
25169;SDS011;13129;48.012;10.352;2023-02-01T08:09:03;8.02;;;6.80;;
25169;SDS011;13129;48.012;10.352;2023-02-01T08:11:29;9.05;;;7.03;;
25169;SDS011;13129;48.012;10.352;2023-02-01T08:13:55;9.27;;;6.70;;
25169;SDS011;13129;48.012;10.352;2023-02-01T08:16:21;9.55;;;7.38;;
25169;SDS011;13129;48.012;10.352;2023-02-01T08:18:48;7.18;;;6.47;;
25169;SDS011;13129;48.012;10.352;2023-02-01T08:21:47;8.98;;;7.00;;
25169;SDS011;13129;48.012;10.352;2023-02-01T08:24:07;9.38;;;6.80;;
25169;SDS011;13129;48.012;10.352;2023-02-01T08:26:34;8.45;;;6.53;;
25169;SDS011;13129;48.012;10.352;2023-02-01T08:29:01;6.55;;;5.90;;
25169;SDS011;13129;48.012;10.352;2023-02-01T08:31:28;7.68;;;6.15;;
25169;SDS011;13129;48.012;10.352;2023-02-01T08:33:56;7.50;;;5.97;;
25169;SDS011;13129;48.012;10.352;2023-02-01T08:36:24;8.75;;;6.95;;
25169;SDS011;13129;48.012;10.352;2023-02-01T08:38:50;7.75;;;6.68;;
25169;SDS011;13129;48.012;10.352;2023-02-01T08:41:18;8.02;;;6.85;;
25169;SDS011;13129;48.012;10.352;2023-02-01T08:43:45;8.13;;;6.28;;
25169;SDS011;13129;48.012;10.352;2023-02-01T08:46:11;9.13;;;6.50;;
25169;SDS011;13129;48.012;10.352;2023-02-01T08:48:37;7.20;;;6.38;;
25169;SDS011;13129;48.012;10.352;2023-02-01T08:51:04;9.07;;;6.43;;
25169;SDS011;13129;48.012;10.352;2023-02-01T08:53:31;8.10;;;6.63;;
25169;SDS011;13129;48.012;10.352;2023-02-01T08:55:57;7.28;;;6.35;;
25169;SDS011;13129;48.012;10.352;2023-02-01T08:58:22;7.95;;;6.82;;
25169;SDS011;13129;48.012;10.352;2023-02-01T09:00:48;7.65;;;6.07;;
25169;SDS011;13129;48.012;10.352;2023-02-01T09:03:14;8.95;;;8.02;;
25169;SDS011;13129;48.012;10.352;2023-02-01T09:05:40;7.00;;;5.75;;
25169;SDS011;13129;48.012;10.352;2023-02-01T09:08:06;7.50;;;6.80;;
25169;SDS011;13129;48.012;10.352;2023-02-01T09:10:32;11.70;;;7.00;;
25169;SDS011;13129;48.012;10.352;2023-02-01T09:12:59;6.75;;;5.82;;
25169;SDS011;13129;48.012;10.352;2023-02-01T09:15:24;6.82;;;6.13;;
25169;SDS011;13129;48.012;10.352;2023-02-01T09:17:50;7.40;;;6.60;;
25169;SDS011;13129;48.012;10.352;2023-02-01T09:20:16;10.63;;;8.02;;
25169;SDS011;13129;48.012;10.352;2023-02-01T09:22:42;8.07;;;6.47;;
25169;SDS011;13129;48.012;10.352;2023-02-01T09:25:08;12.40;;;8.15;;
25169;SDS011;13129;48.012;10.352;2023-02-01T09:27:34;10.02;;;7.55;;
25169;SDS011;13129;48.012;10.352;2023-02-01T09:30:00;11.68;;;8.40;;
25169;SDS011;13129;48.012;10.352;2023-02-01T09:32:26;9.00;;;5.68;;
25169;SDS011;13129;48.012;10.352;2023-02-01T09:34:52;8.23;;;6.43;;
25169;SDS011;13129;48.012;10.352;2023-02-01T09:37:18;7.03;;;5.43;;
25169;SDS011;13129;48.012;10.352;2023-02-01T09:39:44;9.07;;;7.45;;
25169;SDS011;13129;48.012;10.352;2023-02-01T09:42:22;7.93;;;6.47;;
25169;SDS011;13129;48.012;10.352;2023-02-01T09:47:49;8.52;;;6.68;;
25169;SDS011;13129;48.012;10.352;2023-02-01T09:50:21;8.38;;;6.80;;
25169;SDS011;13129;48.012;10.352;2023-02-01T09:53:00;7.65;;;6.25;;
25169;SDS011;13129;48.012;10.352;2023-02-01T09:58:14;9.85;;;6.88;;
25169;SDS011;13129;48.012;10.352;2023-02-01T10:00:46;10.05;;;7.00;;
25169;SDS011;13129;48.012;10.352;2023-02-01T10:03:16;7.57;;;6.50;;
25169;SDS011;13129;48.012;10.352;2023-02-01T10:05:45;8.45;;;7.18;;
25169;SDS011;13129;48.012;10.352;2023-02-01T10:11:13;8.40;;;6.60;;
25169;SDS011;13129;48.012;10.352;2023-02-01T10:20:12;10.05;;;7.05;;
25169;SDS011;13129;48.012;10.352;2023-02-01T10:28:54;7.47;;;6.07;;
25169;SDS011;13129;48.012;10.352;2023-02-01T10:31:24;7.47;;;6.13;;
25169;SDS011;13129;48.012;10.352;2023-02-01T10:33:58;9.70;;;6.95;;
25169;SDS011;13129;48.012;10.352;2023-02-01T10:36:28;6.70;;;5.85;;
25169;SDS011;13129;48.012;10.352;2023-02-01T10:39:01;6.88;;;5.72;;
25169;SDS011;13129;48.012;10.352;2023-02-01T10:41:38;6.38;;;5.75;;
25169;SDS011;13129;48.012;10.352;2023-02-01T10:44:07;8.55;;;6.20;;
25169;SDS011;13129;48.012;10.352;2023-02-01T10:46:40;8.95;;;6.30;;
25169;SDS011;13129;48.012;10.352;2023-02-01T10:49:08;9.10;;;6.25;;
25169;SDS011;13129;48.012;10.352;2023-02-01T10:51:43;7.75;;;6.70;;
25169;SDS011;13129;48.012;10.352;2023-02-01T10:54:16;7.93;;;5.75;;
25169;SDS011;13129;48.012;10.352;2023-02-01T10:56:45;6.43;;;5.82;;
25169;SDS011;13129;48.012;10.352;2023-02-01T10:59:16;7.20;;;5.60;;
25169;SDS011;13129;48.012;10.352;2023-02-01T11:01:45;7.63;;;6.35;;
25169;SDS011;13129;48.012;10.352;2023-02-01T11:06:41;8.52;;;6.65;;
25169;SDS011;13129;48.012;10.352;2023-02-01T11:09:16;11.40;;;7.57;;
25169;SDS011;13129;48.012;10.352;2023-02-01T11:14:14;6.18;;;5.57;;
25169;SDS011;13129;48.012;10.352;2023-02-01T11:16:41;5.85;;;5.32;;
25169;SDS011;13129;48.012;10.352;2023-02-01T11:19:14;8.20;;;7.05;;
25169;SDS011;13129;48.012;10.352;2023-02-01T11:21:42;10.00;;;6.07;;
25169;SDS011;13129;48.012;10.352;2023-02-01T11:24:45;6.95;;;5.30;;
25169;SDS011;13129;48.012;10.352;2023-02-01T11:27:05;8.15;;;5.43;;
25169;SDS011;13129;48.012;10.352;2023-02-01T11:29:40;6.55;;;5.10;;
25169;SDS011;13129;48.012;10.352;2023-02-01T11:32:08;5.85;;;5.15;;
25169;SDS011;13129;48.012;10.352;2023-02-01T11:37:19;9.18;;;5.22;;
25169;SDS011;13129;48.012;10.352;2023-02-01T11:39:57;5.53;;;4.72;;
25169;SDS011;13129;48.012;10.352;2023-02-01T11:42:25;7.07;;;4.72;;
25169;SDS011;13129;48.012;10.352;2023-02-01T11:44:51;5.95;;;4.70;;
25169;SDS011;13129;48.012;10.352;2023-02-01T11:47:41;7.72;;;5.72;;
25169;SDS011;13129;48.012;10.352;2023-02-01T11:50:18;5.22;;;4.78;;
25169;SDS011;13129;48.012;10.352;2023-02-01T11:58:42;6.43;;;5.22;;
25169;SDS011;13129;48.012;10.352;2023-02-01T12:07:20;5.43;;;4.63;;
25169;SDS011;13129;48.012;10.352;2023-02-01T12:35:19;6.68;;;4.63;;
25169;SDS011;13129;48.012;10.352;2023-02-01T12:52:30;5.38;;;4.68;;
25169;SDS011;13129;48.012;10.352;2023-02-01T12:58:15;5.03;;;4.63;;
25169;SDS011;13129;48.012;10.352;2023-02-01T13:03:52;4.85;;;4.40;;
25169;SDS011;13129;48.012;10.352;2023-02-01T13:06:39;5.95;;;4.55;;
25169;SDS011;13129;48.012;10.352;2023-02-01T13:12:15;5.18;;;4.13;;
25169;SDS011;13129;48.012;10.352;2023-02-01T13:14:57;5.57;;;4.55;;
25169;SDS011;13129;48.012;10.352;2023-02-01T13:17:28;6.88;;;4.32;;
25169;SDS011;13129;48.012;10.352;2023-02-01T13:19:57;6.25;;;4.88;;
25169;SDS011;13129;48.012;10.352;2023-02-01T13:22:36;4.80;;;4.25;;
25169;SDS011;13129;48.012;10.352;2023-02-01T13:25:13;5.53;;;4.40;;
25169;SDS011;13129;48.012;10.352;2023-02-01T13:28:04;5.32;;;4.75;;
25169;SDS011;13129;48.012;10.352;2023-02-01T13:30:43;4.65;;;4.15;;
25169;SDS011;13129;48.012;10.352;2023-02-01T13:42:01;4.43;;;3.95;;
25169;SDS011;13129;48.012;10.352;2023-02-01T13:44:59;5.78;;;4.30;;
25169;SDS011;13129;48.012;10.352;2023-02-01T13:47:38;6.55;;;4.57;;
25169;SDS011;13129;48.012;10.352;2023-02-01T13:50:23;7.00;;;4.82;;
25169;SDS011;13129;48.012;10.352;2023-02-01T13:52:59;5.68;;;4.18;;
25169;SDS011;13129;48.012;10.352;2023-02-01T13:55:38;5.72;;;4.30;;
25169;SDS011;13129;48.012;10.352;2023-02-01T13:58:29;4.93;;;4.40;;
25169;SDS011;13129;48.012;10.352;2023-02-01T14:03:47;5.68;;;4.40;;
25169;SDS011;13129;48.012;10.352;2023-02-01T14:06:55;4.82;;;3.97;;
25169;SDS011;13129;48.012;10.352;2023-02-01T14:16:41;7.32;;;5.30;;
25169;SDS011;13129;48.012;10.352;2023-02-01T14:19:33;7.68;;;4.38;;
25169;SDS011;13129;48.012;10.352;2023-02-01T14:22:44;7.32;;;4.88;;
25169;SDS011;13129;48.012;10.352;2023-02-01T14:24:49;6.88;;;5.47;;
25169;SDS011;13129;48.012;10.352;2023-02-01T14:27:20;5.88;;;4.55;;
25169;SDS011;13129;48.012;10.352;2023-02-01T14:29:53;9.05;;;5.95;;
25169;SDS011;13129;48.012;10.352;2023-02-01T14:32:34;7.00;;;5.78;;
25169;SDS011;13129;48.012;10.352;2023-02-01T14:35:06;4.57;;;4.07;;
25169;SDS011;13129;48.012;10.352;2023-02-01T14:37:53;7.55;;;4.38;;
25169;SDS011;13129;48.012;10.352;2023-02-01T14:40:25;7.82;;;4.35;;
25169;SDS011;13129;48.012;10.352;2023-02-01T14:42:53;4.80;;;4.40;;
25169;SDS011;13129;48.012;10.352;2023-02-01T14:48:48;5.20;;;3.85;;
25169;SDS011;13129;48.012;10.352;2023-02-01T14:50:43;2.90;;;2.70;;
25169;SDS011;13129;48.012;10.352;2023-02-01T14:59:00;6.43;;;5.45;;
25169;SDS011;13129;48.012;10.352;2023-02-01T15:01:46;6.40;;;4.30;;
25169;SDS011;13129;48.012;10.352;2023-02-01T15:04:17;8.55;;;5.82;;
25169;SDS011;13129;48.012;10.352;2023-02-01T15:09:16;11.15;;;6.88;;
25169;SDS011;13129;48.012;10.352;2023-02-01T15:11:54;9.90;;;5.13;;
25169;SDS011;13129;48.012;10.352;2023-02-01T15:14:22;6.53;;;5.00;;
25169;SDS011;13129;48.012;10.352;2023-02-01T15:16:48;10.00;;;6.93;;
25169;SDS011;13129;48.012;10.352;2023-02-01T15:19:24;10.38;;;5.57;;
25169;SDS011;13129;48.012;10.352;2023-02-01T15:24:21;10.00;;;4.70;;
25169;SDS011;13129;48.012;10.352;2023-02-01T15:26:49;7.57;;;5.60;;
25169;SDS011;13129;48.012;10.352;2023-02-01T15:29:16;5.97;;;4.57;;
25169;SDS011;13129;48.012;10.352;2023-02-01T15:31:44;6.82;;;4.43;;
25169;SDS011;13129;48.012;10.352;2023-02-01T15:34:12;6.30;;;4.05;;
25169;SDS011;13129;48.012;10.352;2023-02-01T15:36:38;6.57;;;4.00;;
25169;SDS011;13129;48.012;10.352;2023-02-01T15:39:14;7.55;;;4.13;;
25169;SDS011;13129;48.012;10.352;2023-02-01T15:46:52;5.45;;;4.50;;
25169;SDS011;13129;48.012;10.352;2023-02-01T15:51:47;8.13;;;4.70;;
25169;SDS011;13129;48.012;10.352;2023-02-01T15:54:22;4.53;;;4.03;;
25169;SDS011;13129;48.012;10.352;2023-02-01T15:56:55;8.90;;;4.03;;
25169;SDS011;13129;48.012;10.352;2023-02-01T15:59:36;7.05;;;5.00;;
25169;SDS011;13129;48.012;10.352;2023-02-01T16:07:59;11.63;;;4.68;;
25169;SDS011;13129;48.012;10.352;2023-02-01T16:10:44;10.20;;;5.18;;
25169;SDS011;13129;48.012;10.352;2023-02-01T16:13:12;7.63;;;3.58;;
25169;SDS011;13129;48.012;10.352;2023-02-01T16:15:38;8.38;;;3.80;;
25169;SDS011;13129;48.012;10.352;2023-02-01T16:18:05;7.05;;;3.55;;
25169;SDS011;13129;48.012;10.352;2023-02-01T16:20:33;10.43;;;4.40;;
25169;SDS011;13129;48.012;10.352;2023-02-01T16:23:02;6.45;;;3.90;;
25169;SDS011;13129;48.012;10.352;2023-02-01T16:25:28;6.75;;;3.95;;
25169;SDS011;13129;48.012;10.352;2023-02-01T16:27:55;8.13;;;4.00;;
25169;SDS011;13129;48.012;10.352;2023-02-01T16:30:21;11.27;;;5.00;;
25169;SDS011;13129;48.012;10.352;2023-02-01T16:32:51;5.97;;;3.58;;
25169;SDS011;13129;48.012;10.352;2023-02-01T16:35:23;6.35;;;3.90;;
25169;SDS011;13129;48.012;10.352;2023-02-01T16:37:56;6.88;;;3.75;;
25169;SDS011;13129;48.012;10.352;2023-02-01T16:40:23;10.25;;;4.03;;
25169;SDS011;13129;48.012;10.352;2023-02-01T16:42:49;7.30;;;3.63;;
25169;SDS011;13129;48.012;10.352;2023-02-01T16:45:18;8.60;;;3.70;;
25169;SDS011;13129;48.012;10.352;2023-02-01T16:47:46;6.68;;;4.30;;
25169;SDS011;13129;48.012;10.352;2023-02-01T16:50:17;6.95;;;3.67;;
25169;SDS011;13129;48.012;10.352;2023-02-01T16:52:45;7.00;;;3.80;;
25169;SDS011;13129;48.012;10.352;2023-02-01T16:55:15;7.63;;;3.25;;
25169;SDS011;13129;48.012;10.352;2023-02-01T16:57:42;6.13;;;3.45;;
25169;SDS011;13129;48.012;10.352;2023-02-01T17:00:09;7.25;;;3.72;;
25169;SDS011;13129;48.012;10.352;2023-02-01T17:02:36;6.53;;;4.07;;
25169;SDS011;13129;48.012;10.352;2023-02-01T17:05:03;5.95;;;3.53;;
25169;SDS011;13129;48.012;10.352;2023-02-01T17:07:29;8.38;;;3.45;;
25169;SDS011;13129;48.012;10.352;2023-02-01T17:09:55;6.63;;;3.28;;
25169;SDS011;13129;48.012;10.352;2023-02-01T17:12:22;8.20;;;4.32;;
25169;SDS011;13129;48.012;10.352;2023-02-01T17:14:48;7.03;;;3.92;;
25169;SDS011;13129;48.012;10.352;2023-02-01T17:17:15;8.93;;;4.05;;
25169;SDS011;13129;48.012;10.352;2023-02-01T17:19:41;7.35;;;4.38;;
25169;SDS011;13129;48.012;10.352;2023-02-01T17:22:08;6.90;;;4.60;;
25169;SDS011;13129;48.012;10.352;2023-02-01T17:24:33;10.63;;;4.45;;
25169;SDS011;13129;48.012;10.352;2023-02-01T17:26:59;5.22;;;3.95;;
25169;SDS011;13129;48.012;10.352;2023-02-01T17:29:25;7.28;;;3.67;;
25169;SDS011;13129;48.012;10.352;2023-02-01T17:31:51;5.28;;;3.50;;
25169;SDS011;13129;48.012;10.352;2023-02-01T17:34:18;7.03;;;3.22;;
25169;SDS011;13129;48.012;10.352;2023-02-01T17:36:45;9.18;;;3.10;;
25169;SDS011;13129;48.012;10.352;2023-02-01T17:39:12;5.80;;;3.95;;
25169;SDS011;13129;48.012;10.352;2023-02-01T17:42:00;7.18;;;3.85;;
25169;SDS011;13129;48.012;10.352;2023-02-01T17:44:26;10.07;;;4.55;;
25169;SDS011;13129;48.012;10.352;2023-02-01T17:46:52;6.82;;;3.58;;
25169;SDS011;13129;48.012;10.352;2023-02-01T17:49:17;6.68;;;3.72;;
25169;SDS011;13129;48.012;10.352;2023-02-01T17:51:43;6.78;;;3.60;;
25169;SDS011;13129;48.012;10.352;2023-02-01T17:54:12;8.90;;;3.72;;
25169;SDS011;13129;48.012;10.352;2023-02-01T17:56:39;7.43;;;3.65;;
25169;SDS011;13129;48.012;10.352;2023-02-01T17:59:04;10.52;;;3.60;;
25169;SDS011;13129;48.012;10.352;2023-02-01T18:01:30;9.77;;;5.63;;
25169;SDS011;13129;48.012;10.352;2023-02-01T18:03:56;5.57;;;3.55;;
25169;SDS011;13129;48.012;10.352;2023-02-01T18:06:23;5.53;;;3.90;;
25169;SDS011;13129;48.012;10.352;2023-02-01T18:08:52;11.18;;;3.97;;
25169;SDS011;13129;48.012;10.352;2023-02-01T18:11:19;11.15;;;4.25;;
25169;SDS011;13129;48.012;10.352;2023-02-01T18:13:46;7.70;;;3.90;;
25169;SDS011;13129;48.012;10.352;2023-02-01T18:16:18;8.00;;;4.90;;
25169;SDS011;13129;48.012;10.352;2023-02-01T18:18:45;11.82;;;4.50;;
25169;SDS011;13129;48.012;10.352;2023-02-01T18:21:11;9.65;;;4.95;;
25169;SDS011;13129;48.012;10.352;2023-02-01T18:23:40;6.47;;;4.72;;
25169;SDS011;13129;48.012;10.352;2023-02-01T18:26:08;9.82;;;4.55;;
25169;SDS011;13129;48.012;10.352;2023-02-01T18:28:36;8.07;;;3.70;;
25169;SDS011;13129;48.012;10.352;2023-02-01T18:31:04;5.75;;;3.83;;
25169;SDS011;13129;48.012;10.352;2023-02-01T18:33:31;9.98;;;3.88;;
25169;SDS011;13129;48.012;10.352;2023-02-01T18:35:58;6.10;;;3.40;;
25169;SDS011;13129;48.012;10.352;2023-02-01T18:38:24;6.45;;;3.80;;
25169;SDS011;13129;48.012;10.352;2023-02-01T18:40:52;6.47;;;4.13;;
25169;SDS011;13129;48.012;10.352;2023-02-01T18:43:22;6.97;;;4.22;;
25169;SDS011;13129;48.012;10.352;2023-02-01T18:45:49;9.50;;;4.20;;
25169;SDS011;13129;48.012;10.352;2023-02-01T18:48:17;10.73;;;4.68;;
25169;SDS011;13129;48.012;10.352;2023-02-01T18:50:46;6.47;;;3.47;;
25169;SDS011;13129;48.012;10.352;2023-02-01T18:53:13;9.50;;;3.72;;
25169;SDS011;13129;48.012;10.352;2023-02-01T18:55:40;10.00;;;4.88;;
25169;SDS011;13129;48.012;10.352;2023-02-01T18:58:07;9.75;;;3.88;;
25169;SDS011;13129;48.012;10.352;2023-02-01T19:00:35;6.35;;;3.00;;
25169;SDS011;13129;48.012;10.352;2023-02-01T19:03:01;6.63;;;3.55;;
25169;SDS011;13129;48.012;10.352;2023-02-01T19:05:27;11.90;;;4.20;;
25169;SDS011;13129;48.012;10.352;2023-02-01T19:07:54;7.70;;;3.63;;
25169;SDS011;13129;48.012;10.352;2023-02-01T19:10:20;7.95;;;3.80;;
25169;SDS011;13129;48.012;10.352;2023-02-01T19:12:48;8.32;;;4.05;;
25169;SDS011;13129;48.012;10.352;2023-02-01T19:15:14;8.10;;;3.88;;
25169;SDS011;13129;48.012;10.352;2023-02-01T19:17:42;7.05;;;4.72;;
25169;SDS011;13129;48.012;10.352;2023-02-01T19:20:09;10.07;;;3.55;;
25169;SDS011;13129;48.012;10.352;2023-02-01T19:22:37;11.48;;;4.55;;
25169;SDS011;13129;48.012;10.352;2023-02-01T19:25:04;8.82;;;4.70;;
25169;SDS011;13129;48.012;10.352;2023-02-01T19:27:30;12.65;;;5.53;;
25169;SDS011;13129;48.012;10.352;2023-02-01T19:29:56;7.57;;;4.70;;
25169;SDS011;13129;48.012;10.352;2023-02-01T19:32:22;12.93;;;6.18;;
25169;SDS011;13129;48.012;10.352;2023-02-01T19:34:48;12.50;;;6.63;;
25169;SDS011;13129;48.012;10.352;2023-02-01T19:37:14;11.52;;;5.07;;
25169;SDS011;13129;48.012;10.352;2023-02-01T19:39:41;14.55;;;7.38;;
25169;SDS011;13129;48.012;10.352;2023-02-01T19:42:07;10.60;;;6.00;;
25169;SDS011;13129;48.012;10.352;2023-02-01T19:44:33;9.02;;;4.10;;
25169;SDS011;13129;48.012;10.352;2023-02-01T19:46:59;9.30;;;4.03;;
25169;SDS011;13129;48.012;10.352;2023-02-01T19:49:25;8.10;;;4.60;;
25169;SDS011;13129;48.012;10.352;2023-02-01T19:51:51;8.25;;;3.80;;
25169;SDS011;13129;48.012;10.352;2023-02-01T19:54:17;8.70;;;4.43;;
25169;SDS011;13129;48.012;10.352;2023-02-01T19:56:43;4.80;;;3.08;;
25169;SDS011;13129;48.012;10.352;2023-02-01T19:59:10;8.95;;;3.83;;
25169;SDS011;13129;48.012;10.352;2023-02-01T20:01:36;8.25;;;3.42;;
25169;SDS011;13129;48.012;10.352;2023-02-01T20:04:03;6.13;;;3.67;;
25169;SDS011;13129;48.012;10.352;2023-02-01T20:06:31;6.53;;;3.13;;
25169;SDS011;13129;48.012;10.352;2023-02-01T20:11:27;4.80;;;3.08;;
25169;SDS011;13129;48.012;10.352;2023-02-01T20:13:53;9.52;;;3.70;;
25169;SDS011;13129;48.012;10.352;2023-02-01T20:16:24;8.20;;;3.10;;
25169;SDS011;13129;48.012;10.352;2023-02-01T20:18:50;7.35;;;3.35;;
25169;SDS011;13129;48.012;10.352;2023-02-01T20:21:16;6.97;;;3.17;;
25169;SDS011;13129;48.012;10.352;2023-02-01T20:23:43;6.13;;;3.25;;
25169;SDS011;13129;48.012;10.352;2023-02-01T20:26:11;4.97;;;3.40;;
25169;SDS011;13129;48.012;10.352;2023-02-01T20:28:37;5.53;;;3.00;;
25169;SDS011;13129;48.012;10.352;2023-02-01T20:31:04;6.68;;;2.95;;
25169;SDS011;13129;48.012;10.352;2023-02-01T20:33:31;7.35;;;3.53;;
25169;SDS011;13129;48.012;10.352;2023-02-01T20:35:57;5.97;;;2.85;;
25169;SDS011;13129;48.012;10.352;2023-02-01T20:38:23;6.05;;;3.08;;
25169;SDS011;13129;48.012;10.352;2023-02-01T20:40:49;8.65;;;3.10;;
25169;SDS011;13129;48.012;10.352;2023-02-01T20:43:15;7.40;;;3.33;;
25169;SDS011;13129;48.012;10.352;2023-02-01T20:45:41;9.68;;;3.45;;
25169;SDS011;13129;48.012;10.352;2023-02-01T20:48:08;7.38;;;3.70;;
25169;SDS011;13129;48.012;10.352;2023-02-01T20:50:36;10.05;;;3.20;;
25169;SDS011;13129;48.012;10.352;2023-02-01T20:53:02;7.88;;;3.10;;
25169;SDS011;13129;48.012;10.352;2023-02-01T20:55:28;6.38;;;2.97;;
25169;SDS011;13129;48.012;10.352;2023-02-01T20:57:55;9.25;;;3.47;;
25169;SDS011;13129;48.012;10.352;2023-02-01T21:00:21;6.68;;;3.05;;
25169;SDS011;13129;48.012;10.352;2023-02-01T21:02:48;6.57;;;3.55;;
25169;SDS011;13129;48.012;10.352;2023-02-01T21:05:14;7.72;;;3.00;;
25169;SDS011;13129;48.012;10.352;2023-02-01T21:07:40;8.07;;;3.60;;
25169;SDS011;13129;48.012;10.352;2023-02-01T21:10:07;7.93;;;3.33;;
25169;SDS011;13129;48.012;10.352;2023-02-01T21:12:34;8.52;;;4.28;;
25169;SDS011;13129;48.012;10.352;2023-02-01T21:15:00;9.48;;;3.00;;
25169;SDS011;13129;48.012;10.352;2023-02-01T21:17:25;5.85;;;3.60;;
25169;SDS011;13129;48.012;10.352;2023-02-01T21:19:54;7.38;;;3.90;;
25169;SDS011;13129;48.012;10.352;2023-02-01T21:22:20;9.10;;;4.05;;
25169;SDS011;13129;48.012;10.352;2023-02-01T21:24:46;6.95;;;3.20;;
25169;SDS011;13129;48.012;10.352;2023-02-01T21:27:11;8.35;;;4.25;;
25169;SDS011;13129;48.012;10.352;2023-02-01T21:29:37;9.38;;;4.25;;